Time;durP1;ratioP1;P1;durP2;ratioP2;P2;SDS_P1;SDS_P2;PMS_P1;PMS_P2;Temp;Humidity;BMP_temperature;BMP_pressure;BME280_temperature;BME280_humidity;BME280_pressure;Samples;Min_cycle;Max_cycle;Signal;HPM_P1;HPM_P2
2022/05/07 00:01:21;;;;;;;11.57;10.38;;;15.60;99.90;;;;;;5145765;27;20236;-72
2022/05/07 00:03:48;;;;;;;7.70;6.97;;;15.60;99.90;;;;;;5154176;27;20260;-72
2022/05/07 00:06:15;;;;;;;8.55;7.40;;;15.60;99.90;;;;;;5159183;27;20670;-71
2022/05/07 00:08:51;;;;;;;8.13;7.25;;;15.50;99.90;;;;;;5159094;27;20205;-73
2022/05/07 00:11:20;;;;;;;11.82;9.20;;;15.50;99.90;;;;;;5158244;27;20581;-70
2022/05/07 00:13:48;;;;;;;10.93;8.10;;;15.50;99.90;;;;;;5155155;27;20608;-73
2022/05/07 00:19:00;;;;;;;16.83;9.30;;;15.50;99.90;;;;;;5139396;27;20337;-72
2022/05/07 00:21:28;;;;;;;10.85;9.65;;;15.40;99.90;;;;;;5138730;27;20208;-72
2022/05/07 00:23:55;;;;;;;12.95;9.77;;;15.40;99.90;;;;;;5141634;27;20212;-71
2022/05/07 00:26:22;;;;;;;14.50;9.32;;;15.40;99.90;;;;;;5139077;27;20241;-72
2022/05/07 00:28:50;;;;;;;14.82;10.98;;;15.40;99.90;;;;;;5139371;27;20236;-71
2022/05/07 00:31:17;;;;;;;13.00;8.60;;;15.30;99.90;;;;;;5139069;27;20228;-72
2022/05/07 00:33:44;;;;;;;9.50;8.45;;;15.30;99.90;;;;;;5157314;27;20261;-71
2022/05/07 00:36:11;;;;;;;12.13;8.85;;;15.30;99.90;;;;;;5142703;27;20177;-72
2022/05/07 00:38:38;;;;;;;10.40;9.23;;;15.30;99.90;;;;;;5138621;28;20221;-70
2022/05/07 00:41:05;;;;;;;10.05;8.10;;;15.20;99.90;;;;;;5130220;28;20224;-71
2022/05/07 00:43:36;;;;;;;10.85;8.63;;;15.20;99.90;;;;;;5116161;28;20205;-71
2022/05/07 00:46:05;;;;;;;14.18;10.80;;;15.10;99.90;;;;;;5116510;28;20596;-70
2022/05/07 00:48:32;;;;;;;10.30;8.85;;;15.10;99.90;;;;;;5115665;28;20316;-71
2022/05/07 00:53:45;;;;;;;13.98;9.35;;;15.00;99.90;;;;;;5116125;28;20655;-71
2022/05/07 00:56:12;;;;;;;12.10;9.25;;;15.10;99.90;;;;;;5115862;28;20260;-69
2022/05/07 00:58:39;;;;;;;11.23;9.40;;;15.10;99.90;;;;;;5121610;27;20228;-73
2022/05/07 01:01:07;;;;;;;15.30;10.85;;;15.00;99.90;;;;;;5123541;27;20204;-70
2022/05/07 01:03:35;;;;;;;10.55;9.45;;;15.00;99.90;;;;;;5130685;27;20287;-72
2022/05/07 01:06:02;;;;;;;11.25;9.90;;;15.00;99.90;;;;;;5119913;27;20284;-71
2022/05/07 01:08:30;;;;;;;10.45;9.45;;;15.00;99.90;;;;;;5127647;27;20229;-73
2022/05/07 01:10:58;;;;;;;11.43;10.25;;;15.00;99.90;;;;;;5124371;27;20284;-72
2022/05/07 01:13:25;;;;;;;13.88;9.98;;;15.00;99.90;;;;;;5129750;27;20296;-72
2022/05/07 01:15:56;;;;;;;14.68;10.30;;;15.00;99.90;;;;;;5117967;27;20287;-73
2022/05/07 01:18:25;;;;;;;12.38;9.48;;;15.10;99.90;;;;;;5124700;27;20231;-71
2022/05/07 01:20:54;;;;;;;11.43;9.32;;;15.10;99.90;;;;;;5129036;27;20643;-70
2022/05/07 01:23:22;;;;;;;10.65;9.13;;;15.00;99.90;;;;;;5124831;27;20197;-71
2022/05/07 01:25:49;;;;;;;11.20;9.68;;;15.00;99.90;;;;;;5130008;27;20700;-70
2022/05/07 01:28:16;;;;;;;10.57;9.50;;;15.00;99.90;;;;;;5126285;27;20225;-71
2022/05/07 01:30:43;;;;;;;15.38;9.55;;;15.10;99.90;;;;;;5129308;27;20211;-71
2022/05/07 01:33:11;;;;;;;11.68;9.35;;;15.10;99.90;;;;;;5129504;27;20285;-72
2022/05/07 01:35:37;;;;;;;11.23;9.30;;;15.10;99.90;;;;;;5121961;27;20197;-71
2022/05/07 01:38:05;;;;;;;12.95;9.50;;;15.20;99.90;;;;;;5124875;27;20225;-71
2022/05/07 01:40:33;;;;;;;11.20;10.10;;;15.10;99.90;;;;;;5134066;27;20276;-71
2022/05/07 01:43:00;;;;;;;12.07;9.90;;;15.20;99.90;;;;;;5125137;27;20208;-72
2022/05/07 01:45:27;;;;;;;9.63;8.55;;;15.10;99.90;;;;;;5131874;27;20207;-72
2022/05/07 01:48:11;;;;;;;9.98;8.35;;;15.10;99.90;;;;;;5123046;27;20204;-70
2022/05/07 01:50:39;;;;;;;12.60;10.27;;;15.00;99.90;;;;;;5128234;27;20224;-70
2022/05/07 01:53:07;;;;;;;10.25;8.98;;;15.00;99.90;;;;;;5132640;27;20205;-71
2022/05/07 01:55:36;;;;;;;11.25;10.00;;;15.00;99.90;;;;;;5127944;27;20193;-69
2022/05/07 01:58:03;;;;;;;18.40;12.07;;;14.90;99.90;;;;;;5118899;27;20277;-72
2022/05/07 02:00:32;;;;;;;14.90;12.00;;;14.80;99.90;;;;;;5126247;27;20197;-71
2022/05/07 02:02:59;;;;;;;14.10;12.20;;;14.70;99.90;;;;;;5133769;27;20288;-71
2022/05/07 02:05:27;;;;;;;16.42;12.60;;;14.70;99.90;;;;;;5144787;27;20296;-71
2022/05/07 02:08:03;;;;;;;11.43;10.23;;;14.60;99.90;;;;;;5140380;27;20232;-71
2022/05/07 02:10:30;;;;;;;16.35;11.45;;;14.60;99.90;;;;;;5136605;27;20215;-68
2022/05/07 02:13:01;;;;;;;12.75;11.55;;;14.60;99.90;;;;;;5147671;27;20201;-71
2022/05/07 02:15:30;;;;;;;12.70;11.40;;;14.60;99.90;;;;;;5135547;27;20554;-71
2022/05/07 02:17:57;;;;;;;15.80;12.10;;;14.50;99.90;;;;;;5123342;27;20207;-73
2022/05/07 02:20:25;;;;;;;14.98;13.10;;;14.40;99.90;;;;;;5116977;27;20198;-72
2022/05/07 02:22:53;;;;;;;13.23;11.95;;;14.30;99.90;;;;;;5128611;27;20203;-72
2022/05/07 02:25:21;;;;;;;13.90;12.43;;;14.30;99.90;;;;;;5127369;27;20534;-72
2022/05/07 02:27:49;;;;;;;18.50;14.65;;;14.20;99.90;;;;;;5130091;27;20201;-71
2022/05/07 02:30:19;;;;;;;17.05;13.80;;;14.20;99.90;;;;;;5121311;27;20228;-72
2022/05/07 02:32:46;;;;;;;14.10;12.63;;;14.20;99.90;;;;;;5141777;27;20261;-70
2022/05/07 02:35:13;;;;;;;15.27;11.88;;;14.10;99.90;;;;;;5142665;27;20194;-72
2022/05/07 02:37:46;;;;;;;14.43;12.82;;;14.10;99.90;;;;;;5149793;27;20204;-71
2022/05/07 02:40:13;;;;;;;16.85;13.70;;;14.00;99.90;;;;;;5152593;27;20220;-71
2022/05/07 02:42:39;;;;;;;15.63;14.02;;;14.00;99.90;;;;;;5151742;27;20185;-69
2022/05/07 02:45:11;;;;;;;21.10;16.95;;;14.00;99.90;;;;;;5146333;27;20244;-72
2022/05/07 02:47:41;;;;;;;14.63;12.93;;;14.00;99.90;;;;;;5136690;27;20242;-69
2022/05/07 02:50:09;;;;;;;16.65;14.63;;;14.00;99.90;;;;;;5134257;27;20311;-70
2022/05/07 02:52:38;;;;;;;18.77;15.82;;;14.10;99.90;;;;;;5135427;27;20537;-71
2022/05/07 02:55:06;;;;;;;19.85;14.93;;;14.10;99.90;;;;;;5124559;28;20200;-69
2022/05/07 02:57:34;;;;;;;15.15;13.48;;;14.00;99.90;;;;;;5121208;28;20243;-70
2022/05/07 03:00:01;;;;;;;21.77;15.30;;;14.00;99.90;;;;;;5134750;28;20273;-69
2022/05/07 03:02:27;;;;;;;17.02;14.98;;;14.00;99.90;;;;;;5144958;28;20197;-71
2022/05/07 03:04:56;;;;;;;19.30;17.30;;;14.00;99.90;;;;;;5147421;28;20224;-71
2022/05/07 03:07:35;;;;;;;19.52;17.52;;;14.00;99.90;;;;;;5126463;28;20583;-73
2022/05/07 03:10:02;;;;;;;18.48;16.00;;;14.10;99.90;;;;;;5125338;27;20236;-71
2022/05/07 03:12:29;;;;;;;16.58;14.77;;;14.10;99.90;;;;;;5124652;28;20280;-71
2022/05/07 03:14:56;;;;;;;19.02;16.27;;;14.10;99.90;;;;;;5126901;28;20193;-72
2022/05/07 03:17:26;;;;;;;17.80;14.52;;;14.10;99.90;;;;;;5118192;28;20670;-72
2022/05/07 03:19:53;;;;;;;19.30;17.30;;;14.10;99.90;;;;;;5126301;27;20578;-73
2022/05/07 03:22:21;;;;;;;21.10;14.65;;;14.10;99.90;;;;;;5132926;28;20208;-72
2022/05/07 03:24:48;;;;;;;20.88;16.30;;;14.10;99.90;;;;;;5123995;28;20678;-71
2022/05/07 03:27:15;;;;;;;18.30;16.25;;;14.10;99.90;;;;;;5126567;28;20716;-71
2022/05/07 03:29:42;;;;;;;19.23;17.23;;;14.10;99.90;;;;;;5120954;27;20290;-71
2022/05/07 03:32:10;;;;;;;20.45;18.35;;;14.10;99.90;;;;;;5128422;27;20216;-72
2022/05/07 03:34:37;;;;;;;22.98;17.33;;;14.20;99.90;;;;;;5124790;28;20216;-71
2022/05/07 03:37:05;;;;;;;19.70;17.70;;;14.20;99.90;;;;;;5126519;28;20228;-71
2022/05/07 03:39:33;;;;;;;19.15;16.58;;;14.20;99.90;;;;;;5121707;28;20245;-71
2022/05/07 03:42:00;;;;;;;19.15;16.25;;;14.30;99.90;;;;;;5122505;28;20212;-71
2022/05/07 03:44:27;;;;;;;18.58;16.67;;;14.30;99.90;;;;;;5125492;28;20245;-72
2022/05/07 03:46:54;;;;;;;19.35;17.25;;;14.30;99.90;;;;;;5129867;28;20261;-72
2022/05/07 03:49:21;;;;;;;19.80;16.27;;;14.30;99.90;;;;;;5124422;28;20308;-71
2022/05/07 03:54:33;;;;;;;20.73;17.52;;;14.40;99.90;;;;;;5121812;27;20204;-70
2022/05/07 03:57:00;;;;;;;22.92;18.45;;;14.30;99.90;;;;;;5128035;28;20236;-71
2022/05/07 03:59:27;;;;;;;23.02;17.90;;;14.30;99.90;;;;;;5127381;27;20273;-72
2022/05/07 04:01:54;;;;;;;20.80;16.85;;;14.30;99.90;;;;;;5123149;28;20648;-74
2022/05/07 04:04:21;;;;;;;24.23;18.02;;;14.30;99.90;;;;;;5110376;28;20233;-71
2022/05/07 04:06:48;;;;;;;22.65;17.83;;;14.40;99.90;;;;;;5120445;28;20240;-72
2022/05/07 04:09:15;;;;;;;28.02;19.75;;;14.50;99.90;;;;;;5129834;27;20340;-71
2022/05/07 04:11:44;;;;;;;19.33;16.42;;;14.50;99.90;;;;;;5128803;27;20279;-72
2022/05/07 04:14:10;;;;;;;17.17;14.70;;;14.50;99.90;;;;;;5130965;27;20232;-72
2022/05/07 04:16:37;;;;;;;18.77;16.08;;;14.30;99.90;;;;;;5133192;27;20283;-72
2022/05/07 04:19:04;;;;;;;17.83;15.35;;;14.40;99.90;;;;;;5127656;27;20238;-72
2022/05/07 04:21:32;;;;;;;24.23;17.15;;;14.40;99.90;;;;;;5130932;27;20615;-71
2022/05/07 04:23:59;;;;;;;16.52;14.85;;;14.40;99.90;;;;;;5126078;27;20231;-70
2022/05/07 04:26:26;;;;;;;18.45;15.07;;;14.30;99.90;;;;;;5130131;27;20632;-71
2022/05/07 04:28:55;;;;;;;17.33;15.48;;;14.30;99.90;;;;;;5126442;27;20692;-71
2022/05/07 04:31:22;;;;;;;16.67;15.02;;;14.40;99.90;;;;;;5114672;27;20236;-70
2022/05/07 04:33:49;;;;;;;18.30;15.43;;;14.40;99.90;;;;;;5128384;27;20699;-71
2022/05/07 04:36:16;;;;;;;21.23;15.68;;;14.50;99.90;;;;;;5125830;27;20205;-70
2022/05/07 04:38:43;;;;;;;17.60;15.75;;;14.60;99.90;;;;;;5127746;27;20224;-71
2022/05/07 04:41:10;;;;;;;20.70;16.45;;;14.60;99.90;;;;;;5127767;27;20235;-71
2022/05/07 04:43:37;;;;;;;19.50;15.20;;;14.90;99.90;;;;;;5134349;27;20219;-70
2022/05/07 04:46:05;;;;;;;19.10;14.30;;;15.00;99.90;;;;;;5110071;27;20232;-70
2022/05/07 04:48:32;;;;;;;17.05;14.15;;;15.20;99.90;;;;;;5109134;28;20278;-71
2022/05/07 04:50:59;;;;;;;19.63;15.40;;;15.50;99.90;;;;;;5127305;27;20231;-71
2022/05/07 04:53:27;;;;;;;20.05;14.73;;;15.90;99.90;;;;;;5125132;27;20289;-70
2022/05/07 04:55:54;;;;;;;19.07;15.40;;;16.70;99.90;;;;;;5128441;27;20242;-70
2022/05/07 04:58:22;;;;;;;16.57;14.83;;;17.60;99.90;;;;;;5122485;27;20491;-73
2022/05/07 05:00:48;;;;;;;20.53;15.63;;;18.50;99.90;;;;;;5126697;27;20446;-73
2022/05/07 05:03:18;;;;;;;17.40;14.30;;;19.30;99.90;;;;;;5123047;27;20447;-71
2022/05/07 05:05:45;;;;;;;16.93;15.10;;;20.00;99.90;;;;;;5129138;27;20441;-72
2022/05/07 05:08:12;;;;;;;18.00;15.20;;;20.60;99.90;;;;;;5122609;27;20968;-72
2022/05/07 05:10:39;;;;;;;19.60;16.13;;;21.20;99.90;;;;;;5128764;27;20571;-72
2022/05/07 05:13:06;;;;;;;19.23;16.17;;;21.50;99.90;;;;;;5128295;27;20449;-71
2022/05/07 05:15:33;;;;;;;18.73;16.20;;;21.70;99.20;;;;;;5135312;27;20452;-70
2022/05/07 05:18:00;;;;;;;35.60;24.00;;;22.10;98.40;;;;;;5125604;27;20446;-72
2022/05/07 05:20:29;;;;;;;32.90;25.30;;;22.10;97.60;;;;;;5133295;27;20779;-70
2022/05/07 05:22:56;;;;;;;31.87;26.57;;;21.90;97.30;;;;;;5124284;27;20456;-71
2022/05/07 05:25:22;;;;;;;32.57;26.07;;;21.40;97.90;;;;;;5127416;27;20488;-72
2022/05/07 05:27:49;;;;;;;32.50;25.90;;;20.90;99.40;;;;;;5116200;27;20543;-71
2022/05/07 05:30:16;;;;;;;44.73;28.50;;;20.30;99.90;;;;;;5118699;27;20486;-71
2022/05/07 05:32:43;;;;;;;40.27;26.80;;;19.80;99.90;;;;;;5116483;27;20447;-71
2022/05/07 05:35:11;;;;;;;38.70;27.53;;;19.40;99.90;;;;;;5125765;27;20492;-73
2022/05/07 05:37:39;;;;;;;41.30;31.77;;;19.00;99.90;;;;;;5135525;27;20548;-73
2022/05/07 05:40:08;;;;;;;38.10;29.77;;;18.60;99.90;;;;;;5135059;27;20469;-70
2022/05/07 05:42:35;;;;;;;33.80;28.60;;;18.30;99.90;;;;;;5135938;27;20526;-72
2022/05/07 05:45:02;;;;;;;39.13;31.00;;;18.10;99.90;;;;;;5135086;27;20430;-72
2022/05/07 05:47:29;;;;;;;40.07;31.70;;;17.90;99.90;;;;;;5134739;27;20430;-70
2022/05/07 05:49:57;;;;;;;39.40;31.87;;;17.80;99.90;;;;;;5134465;27;20586;-70
2022/05/07 05:52:24;;;;;;;37.37;29.93;;;17.70;99.90;;;;;;5135259;27;20449;-72
2022/05/07 05:54:52;;;;;;;38.80;32.20;;;17.60;99.90;;;;;;5135547;27;20529;-70
2022/05/07 05:57:19;;;;;;;42.33;32.53;;;17.50;99.90;;;;;;5134959;27;20437;-73
2022/05/07 05:59:45;;;;;;;44.50;31.67;;;17.40;99.90;;;;;;5126492;27;20583;-71
2022/05/07 06:02:13;;;;;;;34.30;27.47;;;17.30;99.90;;;;;;5107863;27;20527;-71
2022/05/07 06:04:39;;;;;;;36.00;28.70;;;17.20;99.90;;;;;;5115077;27;20450;-71
2022/05/07 06:07:06;;;;;;;36.83;28.70;;;17.20;99.90;;;;;;5131490;27;20449;-71
2022/05/07 06:09:33;;;;;;;36.83;30.30;;;17.30;99.90;;;;;;5125030;27;20481;-70
2022/05/07 06:12:01;;;;;;;43.77;29.60;;;17.30;99.90;;;;;;5128595;27;20557;-70
2022/05/07 06:14:29;;;;;;;39.93;27.03;;;17.40;99.90;;;;;;5125774;27;20811;-71
2022/05/07 06:16:56;;;;;;;35.13;27.60;;;17.40;99.90;;;;;;5122978;27;20451;-71
2022/05/07 06:19:23;;;;;;;31.37;26.90;;;17.40;99.90;;;;;;5102736;28;20571;-69
2022/05/07 06:21:50;;;;;;;32.13;25.97;;;17.40;99.90;;;;;;5104323;28;20522;-71
2022/05/07 06:29:49;;;;;;;37.30;30.27;;;17.20;99.90;;;;;;5099571;28;20277;-73
2022/05/07 06:32:17;;;;;;;36.57;29.30;;;17.20;99.90;;;;;;5112643;28;21036;-73
2022/05/07 06:34:44;;;;;;;40.30;29.97;;;17.10;99.90;;;;;;5124261;27;20461;-72
2022/05/07 06:37:12;;;;;;;42.72;31.85;;;17.20;99.90;;;;;;5131863;27;20459;-72
2022/05/07 06:39:40;;;;;;;38.92;29.67;;;17.20;99.90;;;;;;5124170;27;20224;-73
2022/05/07 06:42:09;;;;;;;39.13;29.27;;;17.20;99.90;;;;;;5131030;27;20227;-71
2022/05/07 06:44:35;;;;;;;37.47;29.20;;;17.00;99.90;;;;;;5123932;27;20288;-72
2022/05/07 06:47:02;;;;;;;38.80;31.60;;;17.00;99.90;;;;;;5128950;27;20549;-74
2022/05/07 06:49:29;;;;;;;39.03;29.27;;;17.10;99.90;;;;;;5123839;27;20477;-71
2022/05/07 06:51:56;;;;;;;43.67;33.13;;;17.20;99.90;;;;;;5129802;27;20554;-71
2022/05/07 06:54:23;;;;;;;42.57;32.80;;;17.30;99.90;;;;;;5127918;28;20199;-71
2022/05/07 06:56:50;;;;;;;42.10;34.33;;;17.50;99.90;;;;;;5113341;28;20454;-71
2022/05/07 06:59:20;;;;;;;43.80;35.20;;;17.80;99.90;;;;;;5113252;28;20549;-74
2022/05/07 07:01:47;;;;;;;41.40;31.47;;;18.00;99.90;;;;;;5121228;27;20451;-76
2022/05/07 07:04:14;;;;;;;41.17;32.87;;;18.20;99.90;;;;;;5128595;28;21027;-72
2022/05/07 07:06:41;;;;;;;36.50;27.17;;;18.50;99.90;;;;;;5126624;28;20460;-71
2022/05/07 07:09:08;;;;;;;30.13;24.00;;;18.60;99.90;;;;;;5127982;27;20473;-73
2022/05/07 07:11:35;;;;;;;26.80;22.67;;;18.80;99.90;;;;;;5130054;28;20534;-73
2022/05/07 07:14:03;;;;;;;29.10;22.10;;;19.20;99.90;;;;;;5125897;27;20481;-72
2022/05/07 07:16:31;;;;;;;27.33;21.57;;;19.60;99.90;;;;;;5129558;27;20833;-73
2022/05/07 07:18:58;;;;;;;26.47;20.87;;;20.10;99.90;;;;;;5119628;28;20466;-75
2022/05/07 07:21:25;;;;;;;28.33;23.53;;;20.90;99.90;;;;;;5100331;28;20793;-74
2022/05/07 07:23:52;;;;;;;26.63;20.27;;;21.70;99.90;;;;;;5106876;28;20487;-73
2022/05/07 07:26:19;;;;;;;20.00;17.07;;;22.30;96.90;;;;;;5108032;28;20443;-75
2022/05/07 07:28:47;;;;;;;20.47;16.27;;;22.30;94.60;;;;;;5125554;28;21007;-75
2022/05/07 07:31:16;;;;;;;25.70;18.33;;;22.70;94.90;;;;;;5124815;27;20571;-73
2022/05/07 07:33:44;;;;;;;22.10;17.27;;;23.10;94.00;;;;;;5128126;28;20455;-76
2022/05/07 07:36:12;;;;;;;17.73;13.30;;;23.60;93.00;;;;;;5128636;27;20454;-78
2022/05/07 07:38:39;;;;;;;24.50;15.23;;;23.80;91.60;;;;;;5107070;28;20467;-76
2022/05/07 07:41:07;;;;;;;19.40;14.87;;;24.60;91.30;;;;;;5115685;27;20829;-74
2022/05/07 07:43:35;;;;;;;14.60;11.50;;;25.30;88.20;;;;;;5131592;27;20481;-73
2022/05/07 07:48:48;;;;;;;14.60;11.40;;;25.40;83.20;;;;;;5125598;27;20454;-73
2022/05/07 07:51:16;;;;;;;10.50;8.40;;;25.20;83.80;;;;;;5135680;27;20561;-72
2022/05/07 07:53:44;;;;;;;13.07;8.30;;;25.00;81.10;;;;;;5102246;28;20949;-72
2022/05/07 07:56:12;;;;;;;14.20;8.50;;;25.10;81.40;;;;;;5096459;28;20491;-73
2022/05/07 07:58:39;;;;;;;13.90;10.90;;;25.10;81.90;;;;;;5100081;28;20539;-73
2022/05/07 08:01:07;;;;;;;14.63;13.10;;;25.30;82.30;;;;;;5098171;28;20533;-73
2022/05/07 08:03:34;;;;;;;10.90;8.63;;;25.40;81.70;;;;;;5099903;28;20478;-73
2022/05/07 08:06:02;;;;;;;11.10;8.13;;;26.40;79.30;;;;;;5102758;28;20451;-74
2022/05/07 08:13:59;;;;;;;7.37;5.13;;;26.80;71.90;;;;;;5121985;27;20415;-74
2022/05/07 08:16:26;;;;;;;7.47;5.67;;;26.20;72.50;;;;;;5130748;27;20447;-75
2022/05/07 08:18:53;;;;;;;7.70;6.23;;;25.90;74.80;;;;;;5117307;27;20552;-74
2022/05/07 08:21:34;;;;;;;7.87;6.30;;;25.50;75.10;;;;;;5123867;27;20471;-71
2022/05/07 08:24:01;;;;;;;7.57;5.73;;;24.90;77.20;;;;;;5120706;27;20957;-74
2022/05/07 08:26:28;;;;;;;11.23;5.80;;;25.30;77.80;;;;;;5128574;27;20459;-75
2022/05/07 08:28:55;;;;;;;6.10;4.57;;;26.30;74.80;;;;;;5128483;27;20473;-72
2022/05/07 08:31:23;;;;;;;5.80;4.20;;;26.40;73.10;;;;;;5119110;27;20513;-71
2022/05/07 08:33:50;;;;;;;6.20;5.23;;;26.40;72.30;;;;;;5136714;27;20431;-72
2022/05/07 08:36:18;;;;;;;7.07;5.60;;;26.80;72.40;;;;;;5119339;27;20526;-72
2022/05/07 08:38:47;;;;;;;8.60;5.50;;;26.70;70.50;;;;;;5115894;28;20963;-72
2022/05/07 08:41:14;;;;;;;6.77;5.23;;;26.00;71.00;;;;;;5115069;28;20451;-74
2022/05/07 08:43:43;;;;;;;9.50;7.37;;;25.30;71.50;;;;;;5115847;28;20422;-73
2022/05/07 08:46:11;;;;;;;6.40;5.30;;;25.00;74.50;;;;;;5115447;28;20498;-71
2022/05/07 08:48:41;;;;;;;4.30;3.40;;;24.80;74.90;;;;;;5115132;28;20475;-74
2022/05/07 08:51:15;;;;;;;7.80;5.07;;;24.70;74.20;;;;;;5114663;28;20472;-73
2022/05/07 08:53:43;;;;;;;8.80;5.00;;;24.70;74.70;;;;;;5116482;27;20449;-72
2022/05/07 08:56:12;;;;;;;7.20;5.07;;;25.20;74.40;;;;;;5115369;28;20940;-73
2022/05/07 08:58:39;;;;;;;5.00;4.40;;;25.90;72.80;;;;;;5121503;27;20549;-72
2022/05/07 09:01:06;;;;;;;7.93;5.07;;;26.70;71.50;;;;;;5122068;27;20575;-69
2022/05/07 09:03:41;;;;;;;6.13;4.00;;;27.10;69.50;;;;;;5120092;27;20442;-72
2022/05/07 09:06:22;;;;;;;8.63;6.37;;;27.50;68.20;;;;;;5125877;27;20891;-73
2022/05/07 09:08:50;;;;;;;8.10;6.37;;;28.00;67.40;;;;;;5127090;27;20605;-76
2022/05/07 09:11:19;;;;;;;7.57;5.90;;;27.40;68.60;;;;;;5133862;27;20485;-78
2022/05/07 09:13:46;;;;;;;6.87;6.17;;;26.90;69.30;;;;;;5130681;27;20518;-78
2022/05/07 09:16:13;;;;;;;15.00;11.10;;;26.70;71.00;;;;;;5127055;27;20945;-73
2022/05/07 09:18:48;;;;;;;9.60;8.70;;;26.50;74.50;;;;;;5124868;27;20896;-77
2022/05/07 09:21:19;;;;;;;12.30;11.00;;;26.30;75.60;;;;;;5132939;27;20836;-75
2022/05/07 09:23:48;;;;;;;11.40;10.00;;;26.00;76.60;;;;;;5130066;27;20451;-75
2022/05/07 09:26:27;;;;;;;12.03;9.00;;;25.70;77.10;;;;;;5117795;27;20438;-75
2022/05/07 09:28:54;;;;;;;10.73;8.87;;;25.20;78.70;;;;;;5125103;27;20489;-75
2022/05/07 09:31:26;;;;;;;18.80;13.27;;;25.10;80.00;;;;;;5126456;27;20559;-77
2022/05/07 09:33:53;;;;;;;18.10;10.10;;;25.20;79.90;;;;;;5122920;27;20480;-76
2022/05/07 09:36:19;;;;;;;16.10;9.47;;;24.90;79.40;;;;;;5125194;27;20481;-76
2022/05/07 09:38:48;;;;;;;16.67;10.77;;;25.00;79.70;;;;;;5114028;27;21007;-73
2022/05/07 09:41:22;;;;;;;8.73;7.70;;;24.70;80.20;;;;;;5107304;28;20556;-74
2022/05/07 09:43:52;;;;;;;13.57;8.60;;;25.20;80.40;;;;;;5110208;28;20447;-74
2022/05/07 09:46:20;;;;;;;7.43;6.40;;;25.60;78.40;;;;;;5125066;27;20426;-73
2022/05/07 09:48:47;;;;;;;12.93;8.87;;;25.90;76.10;;;;;;5124239;27;20804;-73
2022/05/07 09:51:14;;;;;;;8.73;7.80;;;26.10;76.70;;;;;;5130223;27;20573;-75
2022/05/07 09:59:16;;;;;;;10.73;6.30;;;25.80;76.20;;;;;;5132292;27;20586;-74
2022/05/07 10:02:00;;;;;;;9.20;6.33;;;25.40;77.60;;;;;;5124436;27;20798;-74
2022/05/07 10:04:45;;;;;;;9.30;6.93;;;24.80;76.20;;;;;;5127702;27;20471;-73
2022/05/07 10:07:41;;;;;;;6.90;5.70;;;24.50;75.90;;;;;;5116010;27;20471;-73
2022/05/07 10:10:24;;;;;;;12.80;8.33;;;24.60;76.70;;;;;;5103552;27;20497;-73
2022/05/07 10:12:54;;;;;;;6.97;5.97;;;24.60;78.30;;;;;;5126722;27;20479;-76
2022/05/07 10:15:25;;;;;;;8.87;7.27;;;24.80;78.80;;;;;;5117914;27;20887;-75
2022/05/07 10:18:00;;;;;;;8.00;7.20;;;25.10;78.90;;;;;;5123054;27;20814;-77
2022/05/07 10:20:36;;;;;;;9.73;7.23;;;25.30;78.10;;;;;;5121507;27;20446;-73
2022/05/07 10:23:03;;;;;;;7.97;5.30;;;25.20;76.10;;;;;;5132458;27;20517;-75
2022/05/07 10:25:31;;;;;;;17.80;6.70;;;24.90;76.00;;;;;;5128104;27;20545;-75
2022/05/07 10:28:09;;;;;;;6.90;5.90;;;24.70;76.10;;;;;;5130886;27;20478;-74
2022/05/07 10:30:50;;;;;;;9.10;7.20;;;24.60;76.70;;;;;;5114925;27;20454;-74
2022/05/07 10:33:18;;;;;;;6.97;5.30;;;24.50;76.90;;;;;;5133614;27;20518;-75
2022/05/07 10:35:49;;;;;;;10.33;6.33;;;24.50;76.20;;;;;;5120248;27;20443;-76
2022/05/07 10:38:26;;;;;;;9.30;6.27;;;24.30;77.60;;;;;;5131999;27;20474;-74
2022/05/07 10:40:54;;;;;;;11.57;6.77;;;24.20;77.50;;;;;;5123774;27;20439;-74
2022/05/07 10:43:32;;;;;;;8.30;5.70;;;24.20;77.20;;;;;;5110333;27;20470;-74
2022/05/07 10:46:06;;;;;;;9.37;7.30;;;24.00;78.40;;;;;;5125416;27;20447;-75
2022/05/07 10:48:43;;;;;;;9.33;6.87;;;23.90;79.10;;;;;;5132012;27;20550;-75
2022/05/07 10:51:18;;;;;;;9.80;6.60;;;24.00;78.10;;;;;;5113676;28;20446;-74
2022/05/07 10:53:45;;;;;;;9.83;5.77;;;24.10;78.60;;;;;;5114423;27;20459;-76
2022/05/07 10:56:14;;;;;;;10.27;7.73;;;24.00;78.00;;;;;;5131558;27;20525;-73
2022/05/07 10:58:51;;;;;;;12.20;6.80;;;23.60;78.00;;;;;;5123076;28;20554;-75
2022/05/07 11:01:21;;;;;;;8.40;5.83;;;23.50;79.00;;;;;;5127825;28;20494;-73
2022/05/07 11:03:49;;;;;;;8.30;6.23;;;23.80;78.60;;;;;;5126058;28;20446;-73
2022/05/07 11:06:17;;;;;;;8.40;6.77;;;23.70;78.30;;;;;;5120621;27;20451;-74
2022/05/07 11:08:49;;;;;;;9.30;7.10;;;23.80;79.70;;;;;;5127827;28;20557;-74
2022/05/07 11:11:18;;;;;;;7.30;5.97;;;23.90;78.50;;;;;;5129084;28;20467;-74
2022/05/07 11:13:46;;;;;;;7.50;6.37;;;24.10;79.40;;;;;;5123971;28;20791;-75
2022/05/07 11:16:16;;;;;;;11.33;7.30;;;24.40;79.40;;;;;;5122670;28;20477;-74
2022/05/07 11:18:45;;;;;;;7.70;6.67;;;24.70;79.10;;;;;;5132276;27;20471;-74
2022/05/07 11:21:14;;;;;;;11.07;7.10;;;24.90;77.70;;;;;;5132869;27;20534;-74
2022/05/07 11:23:43;;;;;;;11.90;7.60;;;24.70;76.70;;;;;;5130807;27;20438;-73
2022/05/07 11:26:16;;;;;;;10.50;6.77;;;24.80;78.90;;;;;;5129238;27;20455;-74
2022/05/07 11:28:44;;;;;;;9.13;7.27;;;24.80;77.40;;;;;;5134377;27;20484;-74
2022/05/07 11:31:12;;;;;;;8.10;7.00;;;24.40;77.80;;;;;;5128417;27;20465;-75
2022/05/07 11:33:39;;;;;;;11.80;7.10;;;23.90;78.50;;;;;;5132373;27;20566;-74
2022/05/07 11:36:08;;;;;;;12.60;9.17;;;23.60;80.10;;;;;;5130621;27;20941;-74
2022/05/07 11:38:36;;;;;;;9.73;7.53;;;23.50;80.60;;;;;;5129950;27;20463;-74
2022/05/07 11:41:14;;;;;;;11.00;7.77;;;23.50;80.50;;;;;;5132663;27;20491;-74
2022/05/07 11:46:26;;;;;;;9.20;6.63;;;23.50;80.40;;;;;;5130474;27;20468;-74
2022/05/07 11:48:53;;;;;;;9.17;6.90;;;23.50;81.30;;;;;;5132081;27;20462;-74
2022/05/07 11:51:26;;;;;;;9.23;6.87;;;23.60;81.80;;;;;;5129561;27;20459;-74
2022/05/07 11:53:53;;;;;;;13.10;6.87;;;23.80;83.10;;;;;;5130480;27;20911;-74
2022/05/07 11:56:20;;;;;;;8.57;7.37;;;24.00;82.80;;;;;;5129782;27;20470;-73
2022/05/07 11:58:49;;;;;;;10.10;8.00;;;24.00;81.20;;;;;;5132210;27;20566;-75
2022/05/07 12:01:21;;;;;;;12.13;7.90;;;24.00;82.30;;;;;;5124233;27;20502;-74
2022/05/07 12:03:48;;;;;;;10.17;7.13;;;24.40;81.80;;;;;;5128338;27;20503;-74
2022/05/07 12:06:26;;;;;;;7.80;6.97;;;24.80;80.80;;;;;;5127382;27;20453;-74
2022/05/07 12:08:53;;;;;;;9.73;8.60;;;24.90;80.40;;;;;;5131151;27;20828;-74
2022/05/07 12:11:21;;;;;;;10.87;8.80;;;24.90;79.70;;;;;;5125281;27;20488;-76
2022/05/07 12:13:49;;;;;;;12.40;9.10;;;24.70;80.30;;;;;;5130537;27;20492;-75
2022/05/07 12:19:00;;;;;;;9.00;8.10;;;24.30;80.80;;;;;;5132526;27;20450;-75
2022/05/07 12:29:57;;;;;;;12.90;10.17;;;23.50;82.70;;;;;;5028528;28;20459;-74
2022/05/07 12:32:26;;;;;;;21.60;11.80;;;23.20;83.40;;;;;;5081122;27;20478;-74
2022/05/07 12:34:53;;;;;;;12.47;9.30;;;23.00;84.70;;;;;;5127901;27;20479;-74
2022/05/07 12:37:21;;;;;;;10.17;9.17;;;23.00;84.90;;;;;;5130577;27;20435;-74
2022/05/07 12:39:48;;;;;;;10.70;8.67;;;23.10;85.00;;;;;;5129457;27;21475;-75
2022/05/07 12:42:15;;;;;;;11.33;9.30;;;23.20;85.00;;;;;;5130411;27;20494;-74
2022/05/07 12:44:43;;;;;;;11.17;8.50;;;23.40;84.90;;;;;;5133037;27;20570;-75
2022/05/07 12:47:10;;;;;;;12.17;9.93;;;23.40;85.30;;;;;;5127547;27;20439;-75
2022/05/07 12:49:37;;;;;;;11.23;8.80;;;23.50;84.60;;;;;;5123253;27;20562;-74
2022/05/07 12:52:07;;;;;;;11.87;8.57;;;23.40;84.40;;;;;;5107878;28;20596;-73
2022/05/07 12:54:36;;;;;;;11.23;10.03;;;23.60;84.10;;;;;;5108382;28;20442;-72
2022/05/07 12:57:04;;;;;;;8.60;7.80;;;23.80;83.80;;;;;;5102733;28;20459;-78
2022/05/07 12:59:31;;;;;;;12.97;9.43;;;23.80;83.90;;;;;;5103829;28;20467;-77
2022/05/07 13:01:58;;;;;;;11.90;8.80;;;23.90;84.20;;;;;;5114901;27;20463;-75
2022/05/07 13:04:26;;;;;;;10.63;8.77;;;23.90;84.10;;;;;;5115300;28;20530;-72
2022/05/07 13:06:53;;;;;;;14.23;10.20;;;23.80;83.70;;;;;;5129980;27;20529;-72
2022/05/07 13:09:20;;;;;;;16.03;10.30;;;23.70;85.00;;;;;;5126627;27;20462;-72
2022/05/07 13:11:50;;;;;;;9.60;6.40;;;23.70;85.30;;;;;;5102896;28;20452;-70
2022/05/07 13:14:17;;;;;;;8.00;6.20;;;23.80;84.10;;;;;;5089754;22;20502;-81
2022/05/07 13:16:44;;;;;;;8.20;7.00;;;24.00;83.90;;;;;;5046477;28;20459;-83
2022/05/07 13:19:11;;;;;;;9.33;7.17;;;23.90;83.50;;;;;;5045344;28;20451;-82
2022/05/07 13:21:42;;;;;;;6.60;6.00;;;23.80;83.50;;;;;;5045209;28;20450;-81